Time;durP1;ratioP1;P1;durP2;ratioP2;P2;SDS_P1;SDS_P2;PMS_P1;PMS_P2;Temp;Humidity;BMP_temperature;BMP_pressure;BME280_temperature;BME280_humidity;BME280_pressure;Samples;Min_cycle;Max_cycle;Signal;HPM_P1;HPM_P2
2020/12/11 00:02:12;;;;;;;0.85;0.63;;;;;;;;;;6176948;22;20080;-74
2020/12/11 00:04:38;;;;;;;2.33;1.05;;;;;;;;;;6177128;22;20013;-74
2020/12/11 00:07:05;;;;;;;0.77;0.77;;;;;;;;;;6177564;23;20012;-74
2020/12/11 00:09:31;;;;;;;2.50;1.00;;;;;;;;;;6176277;23;20009;-74
2020/12/11 00:11:57;;;;;;;1.30;1.20;;;;;;;;;;6177329;23;20001;-74
2020/12/11 00:14:23;;;;;;;2.50;1.15;;;;;;;;;;6176172;23;20035;-74
2020/12/11 00:16:49;;;;;;;0.65;0.65;;;;;;;;;;6177288;23;20448;-74
2020/12/11 00:19:15;;;;;;;2.33;0.80;;;;;;;;;;6176734;23;20012;-74
2020/12/11 00:21:42;;;;;;;0.60;0.60;;;;;;;;;;6177005;22;20029;-74
2020/12/11 00:24:08;;;;;;;0.85;0.70;;;;;;;;;;6176711;23;20083;-74
2020/12/11 00:26:34;;;;;;;1.65;0.60;;;;;;;;;;6177100;23;20005;-74
2020/12/11 00:29:00;;;;;;;1.20;0.70;;;;;;;;;;6177349;23;20001;-74
2020/12/11 00:31:27;;;;;;;0.77;0.73;;;;;;;;;;6176358;23;20113;-74
2020/12/11 00:33:53;;;;;;;0.73;0.73;;;;;;;;;;6176948;23;20035;-74
2020/12/11 00:36:20;;;;;;;1.15;0.73;;;;;;;;;;6149955;22;20386;-74
2020/12/11 00:38:46;;;;;;;0.95;0.60;;;;;;;;;;6177214;23;20001;-74
2020/12/11 00:41:12;;;;;;;0.88;0.63;;;;;;;;;;6176377;23;20029;-74
2020/12/11 00:43:38;;;;;;;1.00;0.77;;;;;;;;;;6177072;23;20020;-74
2020/12/11 00:46:04;;;;;;;0.70;0.70;;;;;;;;;;6176790;23;20001;-74
2020/12/11 00:48:30;;;;;;;0.50;0.50;;;;;;;;;;6176771;23;20005;-74
2020/12/11 00:50:57;;;;;;;0.52;0.50;;;;;;;;;;6177584;23;20047;-73
2020/12/11 00:53:23;;;;;;;1.23;0.80;;;;;;;;;;6176083;23;20005;-73
2020/12/11 00:55:49;;;;;;;0.98;0.77;;;;;;;;;;6176855;23;20061;-73
2020/12/11 00:58:15;;;;;;;0.57;0.57;;;;;;;;;;6176597;23;20005;-73
2020/12/11 01:00:41;;;;;;;0.60;0.57;;;;;;;;;;6176985;22;20075;-73
2020/12/11 01:03:07;;;;;;;0.60;0.57;;;;;;;;;;6176526;23;20005;-73
2020/12/11 01:05:35;;;;;;;1.05;0.60;;;;;;;;;;6176886;23;20096;-73
2020/12/11 01:08:02;;;;;;;1.67;0.80;;;;;;;;;;6177285;23;20062;-73
2020/12/11 01:10:28;;;;;;;1.25;1.15;;;;;;;;;;6176347;23;20448;-73
2020/12/11 01:12:54;;;;;;;0.88;0.80;;;;;;;;;;6176841;23;20005;-74
2020/12/11 01:15:20;;;;;;;1.10;1.00;;;;;;;;;;6176367;23;20028;-73
2020/12/11 01:17:46;;;;;;;1.52;1.17;;;;;;;;;;6177241;23;20005;-73
2020/12/11 01:20:12;;;;;;;1.13;0.85;;;;;;;;;;6176580;23;20001;-73
2020/12/11 01:22:38;;;;;;;2.15;1.50;;;;;;;;;;6176861;23;19997;-73
2020/12/11 01:25:04;;;;;;;2.08;1.25;;;;;;;;;;6176934;23;20057;-73
2020/12/11 01:27:30;;;;;;;1.83;1.58;;;;;;;;;;6175874;23;20436;-73
2020/12/11 01:29:57;;;;;;;1.10;1.02;;;;;;;;;;6176930;23;20105;-73
2020/12/11 01:32:23;;;;;;;1.00;0.93;;;;;;;;;;6176041;23;20001;-73
2020/12/11 01:34:49;;;;;;;1.98;1.10;;;;;;;;;;6176981;23;20375;-73
2020/12/11 01:37:15;;;;;;;1.83;1.23;;;;;;;;;;6149310;22;20344;-73
2020/12/11 01:39:41;;;;;;;1.35;0.90;;;;;;;;;;6177051;23;20055;-73
2020/12/11 01:42:11;;;;;;;0.73;0.73;;;;;;;;;;6176404;22;20062;-73
2020/12/11 01:44:37;;;;;;;1.83;1.10;;;;;;;;;;6176587;22;20352;-73
2020/12/11 01:47:04;;;;;;;1.45;1.23;;;;;;;;;;6176793;22;20340;-74
2020/12/11 01:49:30;;;;;;;0.75;0.75;;;;;;;;;;6176844;22;20016;-73
2020/12/11 01:51:56;;;;;;;1.42;1.25;;;;;;;;;;6177821;22;20009;-74
2020/12/11 01:54:22;;;;;;;1.30;1.20;;;;;;;;;;6177161;23;20097;-73
2020/12/11 01:57:04;;;;;;;1.05;0.82;;;;;;;;;;6178030;23;20386;-73
2020/12/11 01:59:32;;;;;;;1.52;1.00;;;;;;;;;;6177468;23;20005;-73
2020/12/11 02:01:59;;;;;;;2.15;1.40;;;;;;;;;;6178411;23;20461;-73
2020/12/11 02:04:26;;;;;;;1.13;0.80;;;;;;;;;;6176514;23;20058;-73
2020/12/11 02:06:52;;;;;;;1.85;1.20;;;;;;;;;;6178099;23;20467;-74
2020/12/11 02:09:20;;;;;;;0.85;0.70;;;;;;;;;;6177783;23;20004;-73
2020/12/11 02:11:49;;;;;;;1.55;1.00;;;;;;;;;;6177731;22;20091;-73
2020/12/11 02:14:15;;;;;;;1.10;1.05;;;;;;;;;;6176946;22;20037;-74
2020/12/11 02:16:41;;;;;;;0.95;0.88;;;;;;;;;;6178156;23;20025;-73
2020/12/11 02:19:08;;;;;;;0.93;0.93;;;;;;;;;;6178179;23;20425;-74
2020/12/11 02:21:34;;;;;;;0.75;0.75;;;;;;;;;;6177826;23;20047;-74
2020/12/11 02:24:00;;;;;;;2.83;2.15;;;;;;;;;;6177720;23;20001;-73
2020/12/11 02:26:26;;;;;;;1.05;0.80;;;;;;;;;;6177176;23;20062;-74
2020/12/11 02:28:52;;;;;;;1.27;0.82;;;;;;;;;;6178488;23;20008;-74
2020/12/11 02:31:18;;;;;;;0.93;0.80;;;;;;;;;;6177237;23;20011;-74
2020/12/11 02:33:44;;;;;;;3.00;0.90;;;;;;;;;;6177361;23;20001;-74
2020/12/11 02:36:10;;;;;;;1.70;1.48;;;;;;;;;;6177248;23;20001;-74
2020/12/11 02:38:36;;;;;;;3.40;1.52;;;;;;;;;;6177516;23;20033;-74
2020/12/11 02:41:02;;;;;;;1.60;0.95;;;;;;;;;;6178388;23;20346;-74
2020/12/11 02:43:29;;;;;;;1.33;1.10;;;;;;;;;;6176764;23;20009;-74
2020/12/11 02:45:56;;;;;;;1.95;1.42;;;;;;;;;;6177979;22;20005;-74
2020/12/11 02:48:22;;;;;;;1.45;1.35;;;;;;;;;;6177375;23;20443;-74
2020/12/11 02:50:49;;;;;;;2.17;1.52;;;;;;;;;;6178153;23;20011;-74
2020/12/11 02:53:15;;;;;;;1.27;1.17;;;;;;;;;;6177553;22;20048;-74
2020/12/11 02:55:41;;;;;;;2.53;1.20;;;;;;;;;;6177931;23;20050;-74
2020/12/11 02:58:07;;;;;;;1.55;1.45;;;;;;;;;;6177350;23;20382;-74
2020/12/11 03:00:33;;;;;;;1.52;1.00;;;;;;;;;;6178126;23;20036;-74
2020/12/11 03:02:59;;;;;;;1.17;0.80;;;;;;;;;;6177550;23;20009;-74
2020/12/11 03:05:25;;;;;;;1.10;1.00;;;;;;;;;;6177128;23;20078;-74
2020/12/11 03:07:51;;;;;;;1.52;1.38;;;;;;;;;;6177967;23;20013;-74
2020/12/11 03:10:17;;;;;;;1.75;1.42;;;;;;;;;;6176801;23;20012;-74
2020/12/11 03:12:43;;;;;;;1.10;0.90;;;;;;;;;;6177761;23;20019;-74
2020/12/11 03:15:10;;;;;;;1.63;1.17;;;;;;;;;;6177146;23;20017;-74
2020/12/11 03:17:36;;;;;;;1.17;1.00;;;;;;;;;;6177865;23;20005;-74
2020/12/11 03:20:02;;;;;;;1.85;1.08;;;;;;;;;;6177305;22;20093;-74
2020/12/11 03:22:28;;;;;;;1.67;1.50;;;;;;;;;;6177010;23;20033;-74
2020/12/11 03:24:54;;;;;;;1.23;1.13;;;;;;;;;;6178247;23;20066;-74
2020/12/11 03:27:20;;;;;;;0.57;0.57;;;;;;;;;;6176737;23;20005;-74
2020/12/11 03:29:46;;;;;;;1.40;0.68;;;;;;;;;;6177621;23;20001;-74
2020/12/11 03:32:12;;;;;;;2.22;1.13;;;;;;;;;;6177072;23;20290;-73
2020/12/11 03:34:38;;;;;;;1.55;1.25;;;;;;;;;;6177865;23;20332;-74
2020/12/11 03:37:04;;;;;;;1.90;1.33;;;;;;;;;;6178123;23;20001;-74
2020/12/11 03:39:30;;;;;;;1.08;0.98;;;;;;;;;;6177048;23;20009;-74
2020/12/11 03:41:56;;;;;;;2.05;1.00;;;;;;;;;;6177666;23;20012;-74
2020/12/11 03:44:22;;;;;;;1.23;0.70;;;;;;;;;;6176524;23;20001;-74
2020/12/11 03:46:48;;;;;;;1.10;0.95;;;;;;;;;;6177322;23;20056;-74
2020/12/11 03:49:14;;;;;;;1.20;1.08;;;;;;;;;;6177233;23;20317;-74
2020/12/11 03:51:40;;;;;;;0.98;0.88;;;;;;;;;;6177319;23;20001;-74
2020/12/11 03:54:06;;;;;;;2.20;1.05;;;;;;;;;;6177487;23;20001;-74
2020/12/11 03:56:32;;;;;;;1.33;0.80;;;;;;;;;;6177173;23;20005;-74
2020/12/11 03:58:58;;;;;;;1.27;0.80;;;;;;;;;;6177247;23;20080;-74
2020/12/11 04:01:25;;;;;;;0.60;0.60;;;;;;;;;;6176440;23;20008;-74
2020/12/11 04:03:52;;;;;;;0.40;0.40;;;;;;;;;;6177390;23;20024;-74
2020/12/11 04:06:18;;;;;;;0.60;0.50;;;;;;;;;;6176850;23;20009;-74
2020/12/11 04:08:44;;;;;;;0.73;0.43;;;;;;;;;;6177715;23;20005;-74
2020/12/11 04:11:14;;;;;;;1.48;0.88;;;;;;;;;;6176706;22;20088;-74
2020/12/11 04:13:41;;;;;;;0.85;0.60;;;;;;;;;;6177572;23;19997;-74
2020/12/11 04:16:07;;;;;;;1.52;1.13;;;;;;;;;;6177183;23;20017;-74
2020/12/11 04:18:33;;;;;;;0.85;0.60;;;;;;;;;;6177451;23;20008;-74
2020/12/11 04:20:59;;;;;;;1.23;0.68;;;;;;;;;;6177493;23;20425;-74
2020/12/11 04:23:26;;;;;;;1.67;1.35;;;;;;;;;;6176683;23;20005;-74
2020/12/11 04:25:53;;;;;;;0.60;0.57;;;;;;;;;;6178062;23;20076;-74
2020/12/11 04:28:19;;;;;;;0.60;0.60;;;;;;;;;;6176447;23;20102;-74
2020/12/11 04:30:45;;;;;;;0.90;0.90;;;;;;;;;;6177209;23;20471;-74
2020/12/11 04:33:11;;;;;;;0.90;0.60;;;;;;;;;;6176099;22;20009;-74
2020/12/11 04:35:37;;;;;;;0.45;0.45;;;;;;;;;;6177194;23;20372;-74
2020/12/11 04:38:04;;;;;;;0.40;0.40;;;;;;;;;;6177352;23;20005;-74
2020/12/11 04:40:30;;;;;;;2.30;0.50;;;;;;;;;;6176778;23;20085;-74
2020/12/11 04:42:56;;;;;;;1.05;0.60;;;;;;;;;;6177063;23;20008;-74
2020/12/11 04:45:23;;;;;;;0.93;0.60;;;;;;;;;;6176244;22;20013;-74
2020/12/11 04:47:50;;;;;;;0.63;0.63;;;;;;;;;;6177280;23;20344;-74
2020/12/11 04:50:18;;;;;;;0.75;0.68;;;;;;;;;;6176924;23;20017;-74
2020/12/11 04:52:45;;;;;;;0.45;0.45;;;;;;;;;;6177248;23;20357;-74
2020/12/11 04:55:15;;;;;;;1.00;0.55;;;;;;;;;;6176487;23;20012;-74
2020/12/11 04:57:52;;;;;;;0.52;0.30;;;;;;;;;;6177102;23;20339;-74
2020/12/11 05:00:19;;;;;;;0.50;0.47;;;;;;;;;;6176354;23;20029;-74
2020/12/11 05:02:45;;;;;;;0.93;0.30;;;;;;;;;;6176781;23;20005;-74
2020/12/11 05:05:12;;;;;;;0.40;0.40;;;;;;;;;;6176410;23;20177;-74
2020/12/11 05:07:39;;;;;;;0.50;0.30;;;;;;;;;;6176599;23;20375;-74
2020/12/11 05:10:06;;;;;;;0.57;0.40;;;;;;;;;;6177273;23;20001;-74
2020/12/11 05:12:33;;;;;;;0.30;0.30;;;;;;;;;;6176221;23;20004;-74
2020/12/11 05:15:00;;;;;;;0.43;0.43;;;;;;;;;;6176548;23;20367;-74
2020/12/11 05:17:27;;;;;;;0.55;0.55;;;;;;;;;;6176326;23;20005;-74
2020/12/11 05:19:54;;;;;;;0.17;0.15;;;;;;;;;;6177018;23;20001;-74
2020/12/11 05:22:21;;;;;;;0.57;0.57;;;;;;;;;;6176072;23;20335;-74
2020/12/11 05:24:48;;;;;;;1.10;0.55;;;;;;;;;;6177991;23;20186;-74
2020/12/11 05:27:29;;;;;;;1.13;0.47;;;;;;;;;;6177272;22;20469;-74
2020/12/11 05:29:56;;;;;;;0.40;0.40;;;;;;;;;;6178133;23;20008;-74
2020/12/11 05:32:35;;;;;;;0.30;0.30;;;;;;;;;;6177362;23;20001;-74
2020/12/11 05:35:02;;;;;;;0.30;0.30;;;;;;;;;;6177653;23;20028;-74
2020/12/11 05:37:28;;;;;;;1.13;1.00;;;;;;;;;;6177500;23;20157;-75
2020/12/11 05:39:54;;;;;;;0.70;0.40;;;;;;;;;;6178458;23;20400;-74
2020/12/11 05:42:20;;;;;;;0.40;0.30;;;;;;;;;;6177217;23;20444;-74
2020/12/11 05:44:46;;;;;;;0.77;0.43;;;;;;;;;;6177995;23;20009;-74
2020/12/11 05:47:17;;;;;;;0.35;0.20;;;;;;;;;;6177576;23;20009;-74
2020/12/11 05:49:43;;;;;;;1.45;1.05;;;;;;;;;;6178179;23;20339;-74
2020/12/11 05:52:11;;;;;;;0.63;0.60;;;;;;;;;;6177976;23;20340;-74
2020/12/11 05:54:47;;;;;;;0.38;0.38;;;;;;;;;;6177931;23;20001;-74
2020/12/11 05:57:14;;;;;;;0.55;0.55;;;;;;;;;;6177576;23;20005;-74
2020/12/11 05:59:40;;;;;;;2.20;0.98;;;;;;;;;;6177790;22;20009;-74
2020/12/11 06:02:06;;;;;;;1.58;0.60;;;;;;;;;;6178165;23;20005;-74
2020/12/11 06:04:32;;;;;;;0.90;0.60;;;;;;;;;;6177015;23;20017;-74
2020/12/11 06:06:59;;;;;;;0.47;0.22;;;;;;;;;;6178122;23;20008;-74
2020/12/11 06:09:32;;;;;;;0.60;0.55;;;;;;;;;;6177192;23;20005;-74
2020/12/11 06:11:59;;;;;;;0.30;0.30;;;;;;;;;;6178274;23;20012;-74
2020/12/11 06:14:44;;;;;;;0.40;0.40;;;;;;;;;;6177187;23;19997;-74
2020/12/11 06:17:11;;;;;;;1.67;0.50;;;;;;;;;;6177076;23;20005;-74
2020/12/11 06:19:39;;;;;;;0.40;0.20;;;;;;;;;;6178288;23;20002;-74
2020/12/11 06:22:07;;;;;;;0.32;0.30;;;;;;;;;;6178225;23;20084;-74
2020/12/11 06:24:33;;;;;;;0.50;0.30;;;;;;;;;;6177530;23;20052;-74
2020/12/11 06:27:00;;;;;;;0.75;0.22;;;;;;;;;;6177912;23;20005;-74
2020/12/11 06:29:27;;;;;;;0.25;0.25;;;;;;;;;;6177255;22;20009;-74
2020/12/11 06:31:53;;;;;;;0.47;0.35;;;;;;;;;;6178254;23;20012;-74
2020/12/11 06:34:22;;;;;;;0.98;0.75;;;;;;;;;;6176564;23;20050;-74
2020/12/11 06:36:49;;;;;;;0.55;0.30;;;;;;;;;;6177774;22;20005;-74
2020/12/11 06:39:36;;;;;;;0.10;0.10;;;;;;;;;;6177439;22;20005;-74
2020/12/11 06:42:02;;;;;;;0.30;0.30;;;;;;;;;;6182924;23;20005;-74
2020/12/11 06:44:31;;;;;;;0.43;0.30;;;;;;;;;;6176900;23;20059;-74
2020/12/11 06:47:05;;;;;;;0.25;0.20;;;;;;;;;;6177616;22;20005;-74
2020/12/11 06:49:31;;;;;;;0.30;0.30;;;;;;;;;;6177064;22;20016;-75
2020/12/11 06:51:57;;;;;;;0.65;0.45;;;;;;;;;;6177634;23;20012;-74
2020/12/11 06:54:23;;;;;;;0.80;0.38;;;;;;;;;;6176867;23;20001;-74
2020/12/11 06:56:49;;;;;;;0.60;0.60;;;;;;;;;;6175707;23;20074;-74
2020/12/11 06:59:18;;;;;;;0.80;0.77;;;;;;;;;;6176388;23;20005;-74
2020/12/11 07:01:44;;;;;;;2.10;0.45;;;;;;;;;;6176638;23;20008;-75
2020/12/11 07:04:10;;;;;;;2.22;0.73;;;;;;;;;;6175059;23;20029;-76
2020/12/11 07:06:36;;;;;;;1.20;0.95;;;;;;;;;;6176943;23;20008;-75
2020/12/11 07:09:03;;;;;;;0.93;0.50;;;;;;;;;;6177392;23;20001;-76
2020/12/11 07:11:29;;;;;;;1.30;0.90;;;;;;;;;;6174128;23;20062;-75
2020/12/11 07:13:55;;;;;;;1.20;0.70;;;;;;;;;;6169724;23;20025;-76
2020/12/11 07:16:22;;;;;;;0.98;0.75;;;;;;;;;;6161941;23;20027;-78
2020/12/11 07:18:48;;;;;;;1.95;1.00;;;;;;;;;;6165279;23;20029;-75
2020/12/11 07:21:14;;;;;;;0.70;0.70;;;;;;;;;;6172189;23;20008;-75
2020/12/11 07:23:41;;;;;;;1.33;0.73;;;;;;;;;;6173095;23;20008;-74
2020/12/11 07:26:07;;;;;;;2.13;0.70;;;;;;;;;;6171981;23;20331;-76
2020/12/11 07:28:33;;;;;;;1.10;0.60;;;;;;;;;;6172507;23;20404;-76
2020/12/11 07:31:02;;;;;;;0.80;0.80;;;;;;;;;;6174063;23;20013;-77
2020/12/11 07:33:32;;;;;;;1.00;0.80;;;;;;;;;;6173052;23;20008;-77
2020/12/11 07:36:00;;;;;;;1.40;1.30;;;;;;;;;;6172153;22;20017;-78
2020/12/11 07:38:27;;;;;;;0.90;0.90;;;;;;;;;;6174289;23;20015;-75
2020/12/11 07:40:54;;;;;;;1.55;0.88;;;;;;;;;;6175902;22;20065;-75
2020/12/11 07:43:20;;;;;;;2.15;1.65;;;;;;;;;;6173939;23;20153;-75
2020/12/11 07:45:47;;;;;;;1.88;1.05;;;;;;;;;;6175850;23;20013;-74
2020/12/11 07:48:14;;;;;;;4.82;1.67;;;;;;;;;;6175386;23;20522;-74
2020/12/11 07:50:40;;;;;;;3.35;1.10;;;;;;;;;;6176264;22;20093;-74
2020/12/11 07:53:10;;;;;;;2.67;1.45;;;;;;;;;;6175014;23;20001;-75
2020/12/11 07:55:37;;;;;;;2.50;1.77;;;;;;;;;;6175724;22;20333;-74
2020/12/11 07:58:04;;;;;;;2.22;1.70;;;;;;;;;;6176165;23;20417;-75
2020/12/11 08:00:34;;;;;;;5.20;1.65;;;;;;;;;;6173938;23;20162;-75
2020/12/11 08:03:07;;;;;;;1.95;1.80;;;;;;;;;;6174396;23;20062;-75
2020/12/11 08:05:34;;;;;;;3.50;1.02;;;;;;;;;;6175727;23;20009;-75
2020/12/11 08:08:01;;;;;;;2.58;1.63;;;;;;;;;;6176258;23;20074;-75
2020/12/11 08:10:43;;;;;;;4.13;1.40;;;;;;;;;;6173827;23;20029;-76
2020/12/11 08:13:10;;;;;;;3.58;2.03;;;;;;;;;;6174400;23;20309;-75
2020/12/11 08:15:36;;;;;;;2.00;1.02;;;;;;;;;;6174455;22;20021;-74
2020/12/11 08:18:09;;;;;;;1.45;1.35;;;;;;;;;;6174470;23;20009;-75
2020/12/11 08:20:48;;;;;;;1.45;1.35;;;;;;;;;;6174369;23;20016;-75
2020/12/11 08:23:38;;;;;;;3.20;1.70;;;;;;;;;;6174555;23;20005;-78
2020/12/11 08:26:08;;;;;;;1.13;1.05;;;;;;;;;;6149219;22;20037;-75
2020/12/11 08:28:34;;;;;;;2.05;1.42;;;;;;;;;;6174903;23;20380;-75
2020/12/11 08:31:18;;;;;;;2.95;1.58;;;;;;;;;;6173391;23;20443;-75
2020/12/11 08:33:44;;;;;;;1.73;1.40;;;;;;;;;;6176191;23;20005;-75
2020/12/11 08:36:20;;;;;;;2.33;1.42;;;;;;;;;;6175688;23;20233;-74
2020/12/11 08:39:05;;;;;;;3.08;1.15;;;;;;;;;;6176812;22;20055;-74
2020/12/11 08:41:32;;;;;;;1.55;1.00;;;;;;;;;;6175855;23;20015;-74
2020/12/11 08:44:00;;;;;;;1.52;1.23;;;;;;;;;;6175812;23;20166;-74
2020/12/11 08:49:23;;;;;;;2.90;0.98;;;;;;;;;;6190950;23;20009;-75
2020/12/11 08:51:49;;;;;;;1.15;1.05;;;;;;;;;;6176643;23;20009;-75
2020/12/11 08:54:15;;;;;;;1.63;1.27;;;;;;;;;;6174980;23;19997;-75
2020/12/11 08:56:45;;;;;;;1.48;1.27;;;;;;;;;;6176552;23;19997;-74
2020/12/11 08:59:11;;;;;;;1.98;1.40;;;;;;;;;;6176596;22;20005;-74
2020/12/11 09:01:40;;;;;;;1.27;1.00;;;;;;;;;;6174877;22;20001;-74
2020/12/11 09:04:06;;;;;;;2.20;1.58;;;;;;;;;;6175965;23;20485;-75
2020/12/11 09:06:32;;;;;;;3.05;1.33;;;;;;;;;;6176909;23;20313;-75
2020/12/11 09:08:58;;;;;;;2.67;1.80;;;;;;;;;;6177485;23;20001;-75
2020/12/11 09:11:24;;;;;;;4.63;2.20;;;;;;;;;;6174447;23;20062;-74
2020/12/11 09:13:50;;;;;;;1.58;1.48;;;;;;;;;;6176721;23;20028;-74
2020/12/11 09:16:16;;;;;;;3.53;1.95;;;;;;;;;;6174154;23;20020;-75
2020/12/11 09:18:42;;;;;;;5.25;2.15;;;;;;;;;;6176899;23;20037;-75
2020/12/11 09:21:08;;;;;;;5.60;1.70;;;;;;;;;;6175539;22;20058;-78
2020/12/11 09:23:34;;;;;;;4.28;2.33;;;;;;;;;;6174083;23;20001;-75
2020/12/11 09:26:00;;;;;;;2.22;2.05;;;;;;;;;;6176764;22;20492;-75
2020/12/11 09:28:27;;;;;;;3.50;1.98;;;;;;;;;;6175190;23;20274;-75
2020/12/11 09:30:53;;;;;;;2.70;2.47;;;;;;;;;;6176761;23;20005;-74
2020/12/11 09:33:25;;;;;;;3.13;2.17;;;;;;;;;;6175116;22;20018;-74
2020/12/11 09:38:29;;;;;;;5.35;2.63;;;;;;;;;;6152206;23;20025;-92
2020/12/11 09:41:03;;;;;;;7.00;3.30;;;;;;;;;;6126395;23;20006;-90
2020/12/11 09:56:21;;;;;;;4.88;2.58;;;;;;;;;;6151292;23;20041;-91
2020/12/11 09:58:49;;;;;;;3.22;2.90;;;;;;;;;;6124886;23;20001;-88
2020/12/11 10:01:19;;;;;;;4.72;2.50;;;;;;;;;;6153083;22;20039;-93
2020/12/11 10:03:45;;;;;;;3.60;2.80;;;;;;;;;;6128006;23;20006;-90
2020/12/11 10:06:11;;;;;;;3.20;2.53;;;;;;;;;;6133605;23;20083;-92
2020/12/11 10:08:37;;;;;;;2.72;1.73;;;;;;;;;;6129325;23;20009;-91
2020/12/11 10:11:04;;;;;;;1.77;1.65;;;;;;;;;;6158303;23;20043;-94
2020/12/11 10:13:31;;;;;;;2.17;1.80;;;;;;;;;;6136595;23;20156;-91
2020/12/11 10:15:58;;;;;;;3.50;1.50;;;;;;;;;;6136839;23;20085;-93
2020/12/11 10:18:35;;;;;;;3.28;1.20;;;;;;;;;;6135255;23;20445;-95
2020/12/11 10:21:01;;;;;;;1.60;1.48;;;;;;;;;;6130046;23;20408;-91
2020/12/11 10:23:29;;;;;;;2.38;2.17;;;;;;;;;;6128665;23;20051;-90
2020/12/11 10:25:55;;;;;;;1.67;1.38;;;;;;;;;;6130286;23;20006;-93
2020/12/11 10:28:21;;;;;;;3.22;1.83;;;;;;;;;;6126875;23;20483;-92
2020/12/11 10:30:49;;;;;;;1.73;1.60;;;;;;;;;;6127133;23;20005;-93
2020/12/11 10:33:15;;;;;;;5.00;2.15;;;;;;;;;;6126290;23;20005;-92
2020/12/11 10:35:41;;;;;;;2.67;1.60;;;;;;;;;;6126694;23;20006;-92
2020/12/11 10:38:07;;;;;;;4.30;2.08;;;;;;;;;;6151649;23;20009;-88
2020/12/11 10:40:33;;;;;;;5.20;2.08;;;;;;;;;;6180756;23;20008;-88
2020/12/11 10:42:59;;;;;;;2.17;1.40;;;;;;;;;;6184409;23;20012;-90
2020/12/11 10:45:25;;;;;;;2.33;1.55;;;;;;;;;;6155555;23;20029;-88
2020/12/11 10:47:51;;;;;;;3.70;1.60;;;;;;;;;;6155268;23;20001;-89
2020/12/11 10:50:17;;;;;;;4.03;1.42;;;;;;;;;;6157388;23;20001;-90
2020/12/11 10:52:43;;;;;;;1.63;1.52;;;;;;;;;;6183023;23;19997;-89
2020/12/11 10:55:09;;;;;;;2.13;1.65;;;;;;;;;;6184625;23;20013;-88
2020/12/11 10:57:35;;;;;;;3.05;1.65;;;;;;;;;;6155877;23;20005;-89
2020/12/11 11:00:02;;;;;;;1.73;1.63;;;;;;;;;;6155991;23;20006;-87
2020/12/11 11:02:28;;;;;;;4.32;2.15;;;;;;;;;;6154920;23;20062;-88
2020/12/11 11:04:55;;;;;;;1.23;1.13;;;;;;;;;;6155186;23;20009;-89
2020/12/11 11:07:27;;;;;;;3.97;1.70;;;;;;;;;;6155707;23;20005;-89
2020/12/11 11:13:08;;;;;;;4.43;2.38;;;;;;;;;;6182893;23;20005;-89
2020/12/11 11:15:42;;;;;;;5.50;1.92;;;;;;;;;;6179953;23;20048;-89
2020/12/11 11:18:34;;;;;;;2.53;0.98;;;;;;;;;;6160985;23;20033;-89
2020/12/11 11:28:34;;;;;;;1.63;1.15;;;;;;;;;;6182624;23;20009;-88
2020/12/11 11:31:00;;;;;;;1.92;1.75;;;;;;;;;;6184163;23;20001;-90
2020/12/11 11:33:26;;;;;;;2.55;1.80;;;;;;;;;;6157635;23;20336;-89
2020/12/11 11:35:52;;;;;;;3.75;1.55;;;;;;;;;;6182334;23;20062;-89
2020/12/11 11:38:19;;;;;;;2.08;1.60;;;;;;;;;;6154778;23;20013;-88
2020/12/11 11:40:47;;;;;;;5.20;1.52;;;;;;;;;;6151179;23;20028;-90
2020/12/11 11:43:15;;;;;;;1.52;1.42;;;;;;;;;;6151408;23;20010;-87
2020/12/11 11:45:42;;;;;;;2.15;1.42;;;;;;;;;;6150160;23;20454;-87
2020/12/11 11:48:11;;;;;;;2.85;1.15;;;;;;;;;;6152082;23;20002;-87
2020/12/11 11:50:47;;;;;;;1.48;1.08;;;;;;;;;;6150642;23;20400;-86
2020/12/11 11:53:16;;;;;;;4.93;1.67;;;;;;;;;;6151085;23;20433;-86
2020/12/11 11:55:42;;;;;;;2.45;1.33;;;;;;;;;;6149619;23;20017;-87
2020/12/11 11:58:09;;;;;;;1.88;1.27;;;;;;;;;;6150141;23;20400;-87
2020/12/11 12:00:35;;;;;;;2.15;1.77;;;;;;;;;;6150874;23;20429;-88
2020/12/11 12:03:01;;;;;;;4.35;2.08;;;;;;;;;;6152507;23;20009;-87
2020/12/11 12:05:27;;;;;;;5.68;1.35;;;;;;;;;;6152463;23;20048;-87
2020/12/11 12:07:53;;;;;;;5.13;1.40;;;;;;;;;;6150946;23;20010;-87
2020/12/11 12:10:19;;;;;;;1.88;1.70;;;;;;;;;;6150781;23;20082;-87
2020/12/11 12:12:46;;;;;;;5.60;2.25;;;;;;;;;;6151127;23;20424;-87
2020/12/11 12:15:19;;;;;;;3.30;1.90;;;;;;;;;;6152642;23;20028;-88
2020/12/11 12:28:55;;;;;;;2.60;1.88;;;;;;;;;;6152091;23;20336;-89
2020/12/11 12:31:41;;;;;;;15.82;3.95;;;;;;;;;;6150316;23;20013;-91
2020/12/11 12:36:53;;;;;;;65.30;12.05;;;;;;;;;;6150326;23;20025;-89
2020/12/11 12:44:42;;;;;;;71.78;14.50;;;;;;;;;;6153840;23;20063;-90
2020/12/11 12:47:09;;;;;;;101.30;12.95;;;;;;;;;;6149922;23;20344;-89
2020/12/11 12:49:35;;;;;;;58.13;9.40;;;;;;;;;;6150004;23;20006;-87
2020/12/11 12:52:01;;;;;;;63.95;13.23;;;;;;;;;;6150359;23;20009;-88
2020/12/11 12:54:27;;;;;;;38.78;7.03;;;;;;;;;;6149738;23;20013;-88
2020/12/11 12:56:56;;;;;;;27.67;8.65;;;;;;;;;;6148801;23;20063;-89
2020/12/11 13:03:19;;;;;;;29.13;9.77;;;;;;;;;;6150753;23;20059;-89
2020/12/11 13:05:10;;;;;;;32.13;6.35;;;;;;;;;;6157557;23;20333;-89
2020/12/11 13:07:36;;;;;;;27.37;5.77;;;;;;;;;;6149491;23;20321;-89
2020/12/11 13:10:06;;;;;;;17.48;5.13;;;;;;;;;;6151490;23;20222;-90
2020/12/11 13:12:32;;;;;;;26.92;5.45;;;;;;;;;;6151126;23;19997;-90
2020/12/11 13:14:58;;;;;;;21.35;5.40;;;;;;;;;;6149068;23;20005;-90
2020/12/11 13:17:25;;;;;;;30.27;5.53;;;;;;;;;;6148888;23;20009;-90
2020/12/11 13:19:51;;;;;;;6.72;3.05;;;;;;;;;;6149122;23;20010;-91
2020/12/11 13:27:44;;;;;;;9.98;3.20;;;;;;;;;;6152287;23;20456;-92
2020/12/11 13:30:11;;;;;;;10.05;3.08;;;;;;;;;;6151208;23;20005;-95
2020/12/11 13:32:37;;;;;;;6.43;3.10;;;;;;;;;;6150291;23;20002;-93
2020/12/11 13:35:03;;;;;;;14.75;4.70;;;;;;;;;;6150930;23;19997;-92
2020/12/11 13:37:30;;;;;;;10.45;3.70;;;;;;;;;;6150850;23;20429;-92
2020/12/11 13:40:00;;;;;;;12.32;3.33;;;;;;;;;;6149181;23;20425;-93
2020/12/11 13:42:26;;;;;;;6.18;3.45;;;;;;;;;;6149756;23;20009;-93
2020/12/11 13:44:52;;;;;;;5.72;3.38;;;;;;;;;;6151617;23;20353;-91
2020/12/11 13:47:19;;;;;;;4.13;2.92;;;;;;;;;;6153996;23;20537;-94
2020/12/11 13:49:45;;;;;;;9.02;2.70;;;;;;;;;;6156407;23;20012;-92
2020/12/11 13:52:11;;;;;;;5.68;3.00;;;;;;;;;;6156563;23;20002;-93
2020/12/11 13:54:37;;;;;;;4.97;2.17;;;;;;;;;;6154771;23;20017;-96
2020/12/11 13:57:05;;;;;;;7.50;2.42;;;;;;;;;;6153943;23;20322;-95
2020/12/11 13:59:31;;;;;;;4.47;2.15;;;;;;;;;;6152841;23;20017;-93
2020/12/11 14:01:57;;;;;;;6.78;2.40;;;;;;;;;;6152322;23;20029;-93
2020/12/11 14:04:24;;;;;;;4.07;1.83;;;;;;;;;;6153500;23;20006;-92
2020/12/11 14:06:50;;;;;;;4.60;2.08;;;;;;;;;;6152089;23;20062;-93
2020/12/11 14:09:16;;;;;;;7.72;1.50;;;;;;;;;;6151092;23;20080;-92
2020/12/11 14:11:42;;;;;;;6.03;2.45;;;;;;;;;;6150336;23;20005;-93
2020/12/11 14:14:08;;;;;;;3.35;1.95;;;;;;;;;;6155901;23;20005;-95
2020/12/11 14:16:40;;;;;;;2.88;1.58;;;;;;;;;;6159576;23;20096;-89
2020/12/11 14:21:48;;;;;;;4.75;1.95;;;;;;;;;;6167821;23;20021;-95
2020/12/11 14:24:15;;;;;;;3.20;1.92;;;;;;;;;;6163115;23;20332;-94
2020/12/11 14:26:47;;;;;;;6.55;2.03;;;;;;;;;;6158735;23;20006;-95
2020/12/11 14:29:13;;;;;;;7.63;1.58;;;;;;;;;;6153127;23;20029;-95
2020/12/11 14:31:39;;;;;;;2.60;2.03;;;;;;;;;;6153480;23;20002;-93
2020/12/11 14:34:05;;;;;;;3.60;1.75;;;;;;;;;;6151954;23;20009;-93
2020/12/11 14:36:31;;;;;;;2.95;2.15;;;;;;;;;;6151484;23;20070;-92
2020/12/11 14:39:01;;;;;;;3.42;2.00;;;;;;;;;;6151607;23;20009;-92
2020/12/11 14:41:27;;;;;;;6.72;2.67;;;;;;;;;;6151617;23;20009;-91
2020/12/11 14:43:54;;;;;;;2.13;1.77;;;;;;;;;;6150948;23;20067;-91
2020/12/11 14:46:20;;;;;;;6.72;2.10;;;;;;;;;;6151097;23;20375;-90
2020/12/11 14:48:46;;;;;;;5.82;2.42;;;;;;;;;;6151521;23;20005;-89
2020/12/11 14:51:13;;;;;;;3.70;1.60;;;;;;;;;;6151246;23;20005;-90
2020/12/11 14:53:39;;;;;;;1.63;1.35;;;;;;;;;;6151388;23;20369;-92
2020/12/11 14:56:05;;;;;;;2.30;1.77;;;;;;;;;;6150484;23;20015;-90
2020/12/11 14:58:31;;;;;;;3.33;1.30;;;;;;;;;;6150439;23;20010;-91
2020/12/11 15:00:57;;;;;;;2.40;1.60;;;;;;;;;;6150887;23;20005;-91
2020/12/11 15:03:24;;;;;;;8.18;3.20;;;;;;;;;;6151668;23;20010;-91
2020/12/11 15:05:50;;;;;;;2.95;1.17;;;;;;;;;;6151784;23;20101;-91
2020/12/11 15:08:16;;;;;;;2.13;1.60;;;;;;;;;;6155696;23;20012;-94
2020/12/11 15:10:42;;;;;;;3.60;2.13;;;;;;;;;;6154227;23;20088;-91
2020/12/11 15:13:08;;;;;;;6.65;1.90;;;;;;;;;;6153355;23;20012;-96
2020/12/11 15:15:34;;;;;;;2.50;1.40;;;;;;;;;;6150739;23;20014;-91
2020/12/11 15:18:00;;;;;;;2.10;1.30;;;;;;;;;;6150284;23;20013;-92
2020/12/11 15:20:27;;;;;;;3.13;1.70;;;;;;;;;;6151155;23;20345;-90
2020/12/11 15:22:53;;;;;;;4.00;1.52;;;;;;;;;;6150527;23;20010;-92
2020/12/11 15:25:22;;;;;;;4.43;2.05;;;;;;;;;;6150741;23;20005;-90
2020/12/11 15:27:49;;;;;;;2.67;1.55;;;;;;;;;;6151061;23;20040;-91
2020/12/11 15:30:15;;;;;;;7.95;2.22;;;;;;;;;;6151022;23;20012;-91
2020/12/11 15:32:41;;;;;;;3.78;1.20;;;;;;;;;;6151722;23;20079;-91
2020/12/11 15:35:07;;;;;;;8.52;1.30;;;;;;;;;;6151853;23;20006;-92
2020/12/11 15:37:34;;;;;;;11.45;2.65;;;;;;;;;;6151303;23;20096;-91
2020/12/11 15:40:00;;;;;;;17.13;2.58;;;;;;;;;;6152409;23;20013;-90
2020/12/11 15:42:26;;;;;;;17.75;3.65;;;;;;;;;;6151456;23;20055;-93
2020/12/11 15:44:52;;;;;;;9.48;2.80;;;;;;;;;;6151953;23;20026;-94